Time;durP1;ratioP1;P1;durP2;ratioP2;P2;SDS_P1;SDS_P2;PMS_P1;PMS_P2;Temp;Humidity;BMP_temperature;BMP_pressure;BME280_temperature;BME280_humidity;BME280_pressure;Samples;Min_cycle;Max_cycle;Signal;HPM_P1;HPM_P2
2023/01/25 00:01:20;;;;;;;37.58;21.08;;;;;;;;;;5091962;28;20044;-73
2023/01/25 00:03:45;;;;;;;47.42;21.73;;;;;;;;;;5092092;28;20104;-73
2023/01/25 00:06:11;;;;;;;39.63;20.85;;;;;;;;;;5092683;28;20020;-74
2023/01/25 00:08:37;;;;;;;42.67;21.40;;;;;;;;;;5092001;28;20360;-72
2023/01/25 00:11:03;;;;;;;43.20;21.48;;;;;;;;;;5091907;28;20078;-76
2023/01/25 00:13:29;;;;;;;41.08;21.70;;;;;;;;;;5092225;28;20020;-70
2023/01/25 00:16:00;;;;;;;41.67;21.42;;;;;;;;;;5092230;28;20643;-68
2023/01/25 00:18:26;;;;;;;37.85;20.30;;;;;;;;;;5091854;28;20085;-74
2023/01/25 00:20:51;;;;;;;40.33;20.88;;;;;;;;;;5092024;28;20409;-70
2023/01/25 00:23:16;;;;;;;44.67;22.00;;;;;;;;;;5092024;28;20027;-78
2023/01/25 00:25:42;;;;;;;44.08;20.38;;;;;;;;;;5092013;28;20146;-78
2023/01/25 00:28:07;;;;;;;41.63;21.25;;;;;;;;;;5091680;28;20024;-78
2023/01/25 00:30:33;;;;;;;38.97;20.50;;;;;;;;;;5091718;28;20054;-74
2023/01/25 00:33:18;;;;;;;43.20;21.25;;;;;;;;;;5091971;28;20165;-68
2023/01/25 00:35:44;;;;;;;38.75;21.13;;;;;;;;;;5091974;28;20024;-75
2023/01/25 00:38:32;;;;;;;41.35;20.30;;;;;;;;;;5091637;28;20506;-73
2023/01/25 00:40:57;;;;;;;40.30;21.90;;;;;;;;;;5091767;28;20672;-75
2023/01/25 00:43:23;;;;;;;44.38;21.80;;;;;;;;;;5091537;28;20051;-75
2023/01/25 00:45:48;;;;;;;38.63;20.45;;;;;;;;;;5091673;28;20027;-77
2023/01/25 00:48:14;;;;;;;39.22;20.15;;;;;;;;;;5090893;28;20530;-68
2023/01/25 00:50:40;;;;;;;40.13;21.25;;;;;;;;;;5091578;28;20024;-76
2023/01/25 00:53:05;;;;;;;46.45;22.40;;;;;;;;;;5073463;28;20028;-76
2023/01/25 00:55:30;;;;;;;39.78;21.75;;;;;;;;;;5091859;28;20035;-76
2023/01/25 00:57:56;;;;;;;39.95;21.30;;;;;;;;;;5092265;28;20177;-76
2023/01/25 01:00:21;;;;;;;38.78;20.75;;;;;;;;;;5106703;28;20046;-69
2023/01/25 01:02:47;;;;;;;41.15;20.95;;;;;;;;;;5113079;28;20044;-71
2023/01/25 01:05:12;;;;;;;41.58;21.55;;;;;;;;;;5091476;28;20031;-70
2023/01/25 01:07:38;;;;;;;42.05;21.02;;;;;;;;;;5093692;28;20028;-70
2023/01/25 01:10:04;;;;;;;46.53;21.92;;;;;;;;;;5091223;28;20040;-71
2023/01/25 01:12:29;;;;;;;40.80;20.17;;;;;;;;;;5090948;28;20032;-69
2023/01/25 01:14:55;;;;;;;40.95;20.67;;;;;;;;;;5072644;28;20134;-70
2023/01/25 01:17:21;;;;;;;42.30;21.27;;;;;;;;;;5091344;28;20028;-69
2023/01/25 01:19:46;;;;;;;43.08;21.33;;;;;;;;;;5089904;28;20615;-71
2023/01/25 01:22:12;;;;;;;39.78;21.23;;;;;;;;;;5090548;28;20134;-69
2023/01/25 01:24:37;;;;;;;40.58;20.50;;;;;;;;;;5090668;28;20070;-70
2023/01/25 01:27:03;;;;;;;38.55;20.20;;;;;;;;;;5091081;28;20103;-68
2023/01/25 01:29:29;;;;;;;38.97;19.10;;;;;;;;;;5090578;28;20383;-67
2023/01/25 01:31:55;;;;;;;41.78;20.15;;;;;;;;;;5090571;28;20074;-71
2023/01/25 01:34:20;;;;;;;37.83;19.65;;;;;;;;;;5090340;28;20036;-68
2023/01/25 01:36:46;;;;;;;40.38;20.00;;;;;;;;;;5090635;28;20028;-68
2023/01/25 01:39:11;;;;;;;38.00;18.60;;;;;;;;;;5090168;28;20024;-71
2023/01/25 01:41:37;;;;;;;37.95;19.08;;;;;;;;;;5072123;28;20031;-70
2023/01/25 01:44:03;;;;;;;36.90;18.95;;;;;;;;;;5090480;28;20024;-70
2023/01/25 01:46:36;;;;;;;39.28;19.45;;;;;;;;;;5090529;28;20032;-71
2023/01/25 01:49:11;;;;;;;36.45;19.80;;;;;;;;;;5071967;28;20086;-68
2023/01/25 01:51:45;;;;;;;38.65;19.70;;;;;;;;;;5090020;28;20036;-69
2023/01/25 01:54:24;;;;;;;36.13;19.42;;;;;;;;;;5090208;28;20111;-71
2023/01/25 01:57:31;;;;;;;34.55;17.98;;;;;;;;;;5090159;28;20035;-66
2023/01/25 02:00:03;;;;;;;38.75;19.73;;;;;;;;;;5007486;28;20113;-72
2023/01/25 02:02:28;;;;;;;41.50;20.85;;;;;;;;;;5075788;28;20040;-70
2023/01/25 02:04:59;;;;;;;42.28;20.13;;;;;;;;;;5089799;28;20026;-70
2023/01/25 02:07:33;;;;;;;39.58;20.17;;;;;;;;;;5071976;28;20103;-71
2023/01/25 02:09:59;;;;;;;39.00;19.60;;;;;;;;;;5089874;28;20032;-70
2023/01/25 02:12:26;;;;;;;39.08;19.55;;;;;;;;;;5089572;28;20024;-68
2023/01/25 02:14:53;;;;;;;39.45;19.00;;;;;;;;;;5089852;28;20020;-65
2023/01/25 02:17:34;;;;;;;34.70;18.10;;;;;;;;;;5090073;28;20035;-69
2023/01/25 02:20:02;;;;;;;;;;;;;;;;;;5090159;28;20019;-74
2023/01/25 02:22:44;;;;;;;35.15;17.95;;;;;;;;;;5089746;28;20279;-73
2023/01/25 02:25:12;;;;;;;41.08;19.50;;;;;;;;;;5089686;28;20028;-74
2023/01/25 02:27:43;;;;;;;38.70;19.83;;;;;;;;;;5089898;28;20035;-76
2023/01/25 02:30:09;;;;;;;40.17;19.60;;;;;;;;;;5088826;28;20028;-71
2023/01/25 02:32:34;;;;;;;40.00;19.27;;;;;;;;;;5071398;28;20032;-70
2023/01/25 02:35:00;;;;;;;38.53;19.65;;;;;;;;;;5089324;28;20028;-74
2023/01/25 02:37:25;;;;;;;37.70;19.02;;;;;;;;;;5089543;28;20080;-76
2023/01/25 02:39:51;;;;;;;36.60;19.58;;;;;;;;;;5089787;28;20028;-75
2023/01/25 02:42:17;;;;;;;38.13;19.40;;;;;;;;;;5089677;28;20031;-76
2023/01/25 02:44:42;;;;;;;37.88;19.05;;;;;;;;;;5089636;28;20024;-76
2023/01/25 02:47:08;;;;;;;34.70;18.15;;;;;;;;;;5089601;28;20028;-77
2023/01/25 02:49:37;;;;;;;34.17;17.45;;;;;;;;;;5070791;28;20032;-75
2023/01/25 02:52:04;;;;;;;34.20;18.55;;;;;;;;;;5089354;28;20024;-79
2023/01/25 02:54:30;;;;;;;32.70;17.75;;;;;;;;;;5089424;28;20061;-75
2023/01/25 02:56:55;;;;;;;33.17;17.30;;;;;;;;;;5089717;28;20032;-77
2023/01/25 02:59:21;;;;;;;33.75;16.83;;;;;;;;;;5089518;28;20020;-76
2023/01/25 03:01:47;;;;;;;32.55;16.65;;;;;;;;;;5071296;28;20119;-75
2023/01/25 03:04:13;;;;;;;30.90;15.73;;;;;;;;;;5089302;28;20028;-76
2023/01/25 03:06:39;;;;;;;30.38;16.25;;;;;;;;;;5081926;28;20033;-76
2023/01/25 03:09:06;;;;;;;31.08;16.13;;;;;;;;;;5069110;28;20031;-76
2023/01/25 03:11:32;;;;;;;33.72;15.85;;;;;;;;;;5069193;28;20074;-77
2023/01/25 03:13:58;;;;;;;29.45;14.85;;;;;;;;;;5068888;28;20021;-76
2023/01/25 03:16:23;;;;;;;29.33;15.60;;;;;;;;;;5068888;28;20063;-76
2023/01/25 03:18:52;;;;;;;28.92;14.70;;;;;;;;;;5068914;28;20035;-74
2023/01/25 03:21:18;;;;;;;26.85;14.00;;;;;;;;;;5069068;28;20017;-77
2023/01/25 03:23:45;;;;;;;29.77;14.50;;;;;;;;;;5068771;28;20028;-74
2023/01/25 03:26:16;;;;;;;29.85;14.95;;;;;;;;;;5068811;28;20020;-72
2023/01/25 03:28:42;;;;;;;;;;;;;;;;;;5069304;28;20699;-75
2023/01/25 03:31:10;;;;;;;27.05;13.90;;;;;;;;;;5069010;28;19948;-77
2023/01/25 03:33:35;;;;;;;28.95;14.10;;;;;;;;;;5050145;28;20116;-78
2023/01/25 03:36:01;;;;;;;29.98;14.52;;;;;;;;;;5068970;28;20478;-77
2023/01/25 03:38:27;;;;;;;29.20;13.75;;;;;;;;;;5068828;28;20493;-75
2023/01/25 03:40:53;;;;;;;26.42;13.77;;;;;;;;;;5068920;28;20081;-76
2023/01/25 03:43:19;;;;;;;30.20;14.73;;;;;;;;;;5080748;28;20048;-73
2023/01/25 03:45:45;;;;;;;26.60;14.60;;;;;;;;;;5082970;28;20031;-75
2023/01/25 03:48:10;;;;;;;27.40;14.63;;;;;;;;;;5072393;28;20021;-76
2023/01/25 03:50:36;;;;;;;27.70;14.13;;;;;;;;;;5072295;28;20032;-77
2023/01/25 03:53:06;;;;;;;28.77;13.63;;;;;;;;;;5072523;28;20033;-76
2023/01/25 03:55:32;;;;;;;29.50;14.02;;;;;;;;;;5072234;28;20028;-75
2023/01/25 03:57:58;;;;;;;30.10;14.10;;;;;;;;;;5072551;28;20411;-77
2023/01/25 04:00:23;;;;;;;29.25;14.45;;;;;;;;;;5072036;28;20483;-75
2023/01/25 04:02:49;;;;;;;28.83;13.93;;;;;;;;;;5071869;28;20045;-74
2023/01/25 04:05:14;;;;;;;27.70;13.95;;;;;;;;;;5071785;28;20031;-76
2023/01/25 04:07:40;;;;;;;27.13;13.75;;;;;;;;;;5072276;28;20071;-76
2023/01/25 04:10:06;;;;;;;25.45;13.55;;;;;;;;;;5071969;28;20115;-78
2023/01/25 04:12:31;;;;;;;26.00;13.80;;;;;;;;;;5071920;28;20610;-81
2023/01/25 04:14:57;;;;;;;28.67;13.57;;;;;;;;;;5071928;28;20063;-80
2023/01/25 04:17:22;;;;;;;26.33;13.82;;;;;;;;;;5071955;28;20035;-78
2023/01/25 04:19:48;;;;;;;27.40;14.05;;;;;;;;;;5071795;28;20028;-75
2023/01/25 04:22:15;;;;;;;26.40;13.35;;;;;;;;;;5071757;28;20073;-78
2023/01/25 04:24:43;;;;;;;30.55;13.70;;;;;;;;;;5071903;28;20030;-78
2023/01/25 04:27:08;;;;;;;29.42;14.07;;;;;;;;;;5071830;28;20476;-78
2023/01/25 04:29:34;;;;;;;23.98;12.80;;;;;;;;;;5071976;28;20081;-78
2023/01/25 04:32:00;;;;;;;26.73;14.27;;;;;;;;;;5071527;28;20028;-77
2023/01/25 04:34:25;;;;;;;25.52;13.23;;;;;;;;;;5071079;28;20024;-79
2023/01/25 04:36:51;;;;;;;23.90;12.82;;;;;;;;;;5071231;28;20058;-74
2023/01/25 04:39:16;;;;;;;24.50;12.77;;;;;;;;;;5071587;28;20643;-79
2023/01/25 04:41:42;;;;;;;24.45;12.45;;;;;;;;;;5071429;28;20036;-68
2023/01/25 04:44:07;;;;;;;25.08;12.02;;;;;;;;;;5053472;28;20629;-77
2023/01/25 04:46:32;;;;;;;27.88;12.85;;;;;;;;;;5071388;28;20074;-75
2023/01/25 04:48:58;;;;;;;24.40;12.48;;;;;;;;;;5071034;28;20074;-78
2023/01/25 04:51:23;;;;;;;25.17;12.15;;;;;;;;;;5053067;28;20620;-76
2023/01/25 04:53:48;;;;;;;28.17;13.23;;;;;;;;;;5052305;28;20066;-79
2023/01/25 04:56:14;;;;;;;25.15;12.88;;;;;;;;;;5070958;28;20020;-78
2023/01/25 04:58:39;;;;;;;27.42;13.27;;;;;;;;;;5071206;28;20107;-77
2023/01/25 05:01:06;;;;;;;24.30;12.70;;;;;;;;;;5072926;28;20024;-78
2023/01/25 05:03:32;;;;;;;25.88;12.43;;;;;;;;;;5082005;28;20332;-80
2023/01/25 05:05:57;;;;;;;24.60;12.43;;;;;;;;;;5082336;28;20024;-80
2023/01/25 05:08:24;;;;;;;24.38;12.32;;;;;;;;;;5082274;28;20023;-80
2023/01/25 05:10:50;;;;;;;28.38;11.68;;;;;;;;;;5081394;28;20028;-79
2023/01/25 05:13:15;;;;;;;28.27;12.82;;;;;;;;;;5081986;28;20326;-79
2023/01/25 05:15:40;;;;;;;24.88;12.13;;;;;;;;;;5081741;28;20031;-77
2023/01/25 05:18:06;;;;;;;25.67;12.52;;;;;;;;;;5082038;28;20032;-80
2023/01/25 05:20:31;;;;;;;24.70;12.13;;;;;;;;;;5081656;28;20024;-76
2023/01/25 05:22:57;;;;;;;27.25;13.40;;;;;;;;;;5081934;28;20225;-79
2023/01/25 05:28:06;;;;;;;25.55;12.57;;;;;;;;;;5081785;28;20401;-75
2023/01/25 05:30:32;;;;;;;24.25;12.07;;;;;;;;;;5081952;28;20044;-78
2023/01/25 05:32:57;;;;;;;24.95;12.40;;;;;;;;;;5081691;28;20037;-78
2023/01/25 05:35:23;;;;;;;30.08;12.90;;;;;;;;;;5081574;28;20028;-79
2023/01/25 05:37:48;;;;;;;24.00;12.15;;;;;;;;;;5081857;28;20204;-79
2023/01/25 05:40:14;;;;;;;24.27;12.57;;;;;;;;;;5081808;28;20277;-80
2023/01/25 05:42:39;;;;;;;25.98;12.98;;;;;;;;;;5081485;28;20031;-79
2023/01/25 05:45:06;;;;;;;25.15;12.50;;;;;;;;;;5081453;28;20078;-78
2023/01/25 05:47:31;;;;;;;25.48;13.18;;;;;;;;;;5081404;28;20024;-76
2023/01/25 05:49:57;;;;;;;31.80;13.63;;;;;;;;;;5081217;28;20259;-73
2023/01/25 05:52:22;;;;;;;25.58;13.50;;;;;;;;;;5081293;28;20020;-77
2023/01/25 05:54:48;;;;;;;28.58;13.43;;;;;;;;;;5081445;28;20024;-74
2023/01/25 05:57:14;;;;;;;26.40;13.85;;;;;;;;;;5080800;28;20074;-75
2023/01/25 05:59:39;;;;;;;29.20;13.20;;;;;;;;;;5081407;28;20032;-74
2023/01/25 06:02:05;;;;;;;25.90;12.68;;;;;;;;;;5081098;28;20228;-74
2023/01/25 06:04:30;;;;;;;25.83;12.77;;;;;;;;;;5080734;28;20059;-75
2023/01/25 06:06:56;;;;;;;25.58;13.35;;;;;;;;;;5081290;28;20024;-75
2023/01/25 06:09:22;;;;;;;24.33;12.80;;;;;;;;;;5081168;28;20098;-74
2023/01/25 06:11:48;;;;;;;26.35;12.52;;;;;;;;;;5081019;28;20047;-76
2023/01/25 06:14:13;;;;;;;26.90;11.57;;;;;;;;;;5079758;28;20078;-74
2023/01/25 06:16:39;;;;;;;24.55;12.15;;;;;;;;;;5079684;28;20035;-74
2023/01/25 06:19:05;;;;;;;23.73;12.40;;;;;;;;;;5080037;28;20134;-74
2023/01/25 06:21:31;;;;;;;23.27;12.10;;;;;;;;;;5063284;28;20037;-75
2023/01/25 06:23:56;;;;;;;26.08;12.32;;;;;;;;;;5092176;28;20012;-75
2023/01/25 06:26:22;;;;;;;25.08;12.75;;;;;;;;;;5077203;28;20020;-70
2023/01/25 06:28:47;;;;;;;26.30;12.00;;;;;;;;;;5085849;28;20342;-75
2023/01/25 06:31:15;;;;;;;22.40;12.30;;;;;;;;;;5081245;28;20024;-73
2023/01/25 06:33:41;;;;;;;25.42;12.27;;;;;;;;;;5080663;28;20032;-75
2023/01/25 06:36:11;;;;;;;23.40;11.95;;;;;;;;;;5081168;28;20073;-75
2023/01/25 06:38:36;;;;;;;26.83;12.18;;;;;;;;;;5080617;28;20028;-77
2023/01/25 06:41:03;;;;;;;28.48;12.77;;;;;;;;;;5080773;28;20027;-75
2023/01/25 06:43:30;;;;;;;23.83;12.18;;;;;;;;;;5080062;28;20024;-75
2023/01/25 06:46:00;;;;;;;25.10;12.50;;;;;;;;;;5061096;28;20025;-71
2023/01/25 06:48:26;;;;;;;26.07;12.37;;;;;;;;;;5080355;28;20024;-75
2023/01/25 06:50:59;;;;;;;23.20;11.77;;;;;;;;;;5080693;28;20299;-76
2023/01/25 06:53:26;;;;;;;22.85;11.63;;;;;;;;;;5079609;28;20052;-74
2023/01/25 06:56:05;;;;;;;23.63;11.75;;;;;;;;;;5080645;28;20033;-79
2023/01/25 06:58:31;;;;;;;25.27;11.57;;;;;;;;;;5080663;28;20233;-72
2023/01/25 07:01:03;;;;;;;24.35;12.18;;;;;;;;;;5080763;28;20020;-69
2023/01/25 07:03:29;;;;;;;26.00;11.70;;;;;;;;;;5079564;28;20036;-66
2023/01/25 07:05:59;;;;;;;21.85;11.23;;;;;;;;;;5080848;28;20340;-71
2023/01/25 07:08:24;;;;;;;24.30;12.15;;;;;;;;;;5080104;28;20029;-71
2023/01/25 07:10:57;;;;;;;26.00;12.20;;;;;;;;;;5080551;28;20059;-67
2023/01/25 07:13:24;;;;;;;23.33;11.15;;;;;;;;;;5078061;28;20032;-71
2023/01/25 07:15:55;;;;;;;23.63;11.63;;;;;;;;;;5069833;28;20028;-73
2023/01/25 07:18:20;;;;;;;23.25;11.50;;;;;;;;;;5097150;28;20028;-74
2023/01/25 07:20:45;;;;;;;20.08;11.07;;;;;;;;;;5104226;28;20074;-74
2023/01/25 07:23:11;;;;;;;22.75;12.20;;;;;;;;;;5104745;28;20251;-75
2023/01/25 07:25:36;;;;;;;23.75;11.48;;;;;;;;;;5103443;28;20043;-69
2023/01/25 07:28:02;;;;;;;29.05;12.35;;;;;;;;;;5100448;28;20061;-71
2023/01/25 07:30:27;;;;;;;28.33;12.98;;;;;;;;;;5082786;28;20042;-72
2023/01/25 07:32:54;;;;;;;27.52;12.45;;;;;;;;;;5104594;28;20039;-73
2023/01/25 07:35:19;;;;;;;24.90;11.70;;;;;;;;;;5103226;28;20031;-70
2023/01/25 07:37:45;;;;;;;24.65;12.32;;;;;;;;;;5102951;28;20099;-72
2023/01/25 07:40:10;;;;;;;29.15;12.45;;;;;;;;;;5101946;28;20330;-73
2023/01/25 07:42:36;;;;;;;27.60;11.55;;;;;;;;;;5100193;28;20024;-69
2023/01/25 07:45:01;;;;;;;27.05;11.73;;;;;;;;;;5099668;28;20070;-68
2023/01/25 07:47:27;;;;;;;26.25;13.00;;;;;;;;;;5085881;28;20044;-74
2023/01/25 07:49:53;;;;;;;26.92;13.73;;;;;;;;;;5103624;28;20028;-72
2023/01/25 07:52:19;;;;;;;28.48;13.55;;;;;;;;;;5104103;28;20024;-70
2023/01/25 07:54:46;;;;;;;28.10;14.20;;;;;;;;;;5103644;28;20154;-71
2023/01/25 07:57:11;;;;;;;25.80;13.48;;;;;;;;;;5086128;28;20023;-77
2023/01/25 07:59:36;;;;;;;28.33;13.40;;;;;;;;;;5103911;28;20083;-75
2023/01/25 08:02:02;;;;;;;26.10;13.32;;;;;;;;;;5103768;28;20268;-73
2023/01/25 08:04:27;;;;;;;26.13;13.15;;;;;;;;;;5103332;28;20438;-72
2023/01/25 08:06:53;;;;;;;25.63;13.27;;;;;;;;;;5103648;28;20032;-77
2023/01/25 08:09:18;;;;;;;31.55;13.95;;;;;;;;;;5083372;28;20220;-73
2023/01/25 08:11:45;;;;;;;27.40;13.43;;;;;;;;;;5083394;28;20025;-72
2023/01/25 08:14:10;;;;;;;28.23;13.20;;;;;;;;;;5065127;28;20103;-70
2023/01/25 08:16:36;;;;;;;31.83;13.30;;;;;;;;;;5077773;28;20426;-70
2023/01/25 08:19:02;;;;;;;26.25;12.98;;;;;;;;;;5054002;28;20063;-76
2023/01/25 08:21:31;;;;;;;27.60;13.48;;;;;;;;;;5055437;28;20031;-70
2023/01/25 08:24:02;;;;;;;23.95;12.70;;;;;;;;;;5071145;28;20033;-70
2023/01/25 08:26:28;;;;;;;24.25;12.73;;;;;;;;;;5071513;28;20036;-75
2023/01/25 08:28:54;;;;;;;27.27;13.07;;;;;;;;;;5069717;28;20105;-71
2023/01/25 08:31:25;;;;;;;30.17;13.40;;;;;;;;;;5071659;28;20109;-68
2023/01/25 08:33:52;;;;;;;27.05;13.75;;;;;;;;;;5073377;28;20422;-68
2023/01/25 08:36:19;;;;;;;30.17;14.05;;;;;;;;;;5072753;28;20054;-70
2023/01/25 08:38:46;;;;;;;31.85;16.98;;;;;;;;;;5070942;28;20024;-69
2023/01/25 08:41:17;;;;;;;30.33;15.02;;;;;;;;;;5074040;28;20028;-70
2023/01/25 08:43:42;;;;;;;;;;;;;;;;;;5073462;28;20027;-67
2023/01/25 08:46:08;;;;;;;28.67;13.00;;;;;;;;;;5071655;28;19912;-67
2023/01/25 08:48:34;;;;;;;26.90;13.00;;;;;;;;;;5052834;28;20020;-65
2023/01/25 08:51:01;;;;;;;27.70;12.52;;;;;;;;;;5073853;28;20032;-71
2023/01/25 08:53:28;;;;;;;25.88;13.32;;;;;;;;;;5071190;28;20242;-70
2023/01/25 08:55:53;;;;;;;30.02;13.32;;;;;;;;;;5070415;28;20032;-71
2023/01/25 08:58:21;;;;;;;26.02;12.38;;;;;;;;;;5072949;28;20535;-70
2023/01/25 09:00:47;;;;;;;26.33;13.15;;;;;;;;;;5071239;28;20466;-68
2023/01/25 09:03:13;;;;;;;24.27;12.07;;;;;;;;;;5070702;28;20136;-68
2023/01/25 09:05:38;;;;;;;25.50;12.52;;;;;;;;;;5070326;28;20113;-67
2023/01/25 09:08:06;;;;;;;23.67;11.98;;;;;;;;;;5071139;28;20099;-68
2023/01/25 09:10:32;;;;;;;27.48;11.77;;;;;;;;;;5070908;28;20033;-67
2023/01/25 09:12:57;;;;;;;24.42;11.23;;;;;;;;;;5072437;28;20111;-68
2023/01/25 09:15:23;;;;;;;24.13;11.18;;;;;;;;;;5071363;28;20103;-68
2023/01/25 09:17:52;;;;;;;22.95;11.70;;;;;;;;;;5077098;28;20039;-70
2023/01/25 09:20:18;;;;;;;23.73;11.52;;;;;;;;;;5080367;28;20012;-66
2023/01/25 09:22:43;;;;;;;23.40;11.90;;;;;;;;;;5071199;28;20101;-68
2023/01/25 09:25:10;;;;;;;22.55;11.55;;;;;;;;;;5080566;28;20052;-66
2023/01/25 09:27:36;;;;;;;24.95;11.35;;;;;;;;;;5075246;28;20031;-67
2023/01/25 09:30:01;;;;;;;22.92;11.38;;;;;;;;;;5070871;28;20032;-67
2023/01/25 09:32:26;;;;;;;23.35;11.55;;;;;;;;;;5070424;28;20644;-78
2023/01/25 09:34:52;;;;;;;21.83;11.07;;;;;;;;;;5050816;28;20035;-74
2023/01/25 09:37:17;;;;;;;28.17;11.95;;;;;;;;;;5052817;28;20609;-65
2023/01/25 09:39:43;;;;;;;27.48;12.05;;;;;;;;;;5069727;28;20103;-65
2023/01/25 09:42:24;;;;;;;25.25;11.82;;;;;;;;;;5070234;28;20111;-66
2023/01/25 09:45:11;;;;;;;23.30;11.25;;;;;;;;;;5068199;28;20563;-67
2023/01/25 09:47:42;;;;;;;22.95;11.55;;;;;;;;;;5068547;28;20202;-67
2023/01/25 09:50:33;;;;;;;24.65;12.52;;;;;;;;;;5067804;28;20028;-66
2023/01/25 09:53:20;;;;;;;25.80;12.07;;;;;;;;;;5068341;28;20072;-66
2023/01/25 09:55:58;;;;;;;24.92;11.82;;;;;;;;;;5068128;28;20024;-66
2023/01/25 09:58:30;;;;;;;23.23;11.82;;;;;;;;;;5068853;28;20021;-67
2023/01/25 10:01:24;;;;;;;22.13;11.15;;;;;;;;;;5070046;28;20506;-67
2023/01/25 10:03:54;;;;;;;23.95;11.65;;;;;;;;;;5069100;28;20045;-69
2023/01/25 10:06:23;;;;;;;24.52;12.65;;;;;;;;;;5069108;28;20021;-71
2023/01/25 10:09:07;;;;;;;26.30;12.23;;;;;;;;;;5068809;28;20419;-73
2023/01/25 10:11:33;;;;;;;27.35;12.07;;;;;;;;;;5069608;28;20063;-68
2023/01/25 10:13:59;;;;;;;22.08;11.23;;;;;;;;;;5069610;28;20056;-69
2023/01/25 10:16:27;;;;;;;24.98;12.52;;;;;;;;;;5069296;28;20150;-67
2023/01/25 10:19:01;;;;;;;28.15;13.23;;;;;;;;;;5069442;28;20078;-71
2023/01/25 10:21:54;;;;;;;25.40;13.15;;;;;;;;;;5069580;28;20029;-68
2023/01/25 10:24:49;;;;;;;25.52;12.48;;;;;;;;;;5069299;28;20573;-68
2023/01/25 10:27:33;;;;;;;23.75;11.77;;;;;;;;;;5069355;28;20538;-74
2023/01/25 10:30:07;;;;;;;26.20;12.23;;;;;;;;;;5069058;28;20032;-75
2023/01/25 10:32:33;;;;;;;22.52;11.18;;;;;;;;;;5069287;28;20036;-67
2023/01/25 10:35:16;;;;;;;22.55;11.70;;;;;;;;;;5071155;28;20123;-71
2023/01/25 10:37:42;;;;;;;23.73;11.43;;;;;;;;;;5069432;28;20029;-70
2023/01/25 10:40:11;;;;;;;24.83;12.18;;;;;;;;;;5069182;28;20021;-70
2023/01/25 10:42:47;;;;;;;25.02;12.25;;;;;;;;;;5051514;28;20021;-66
2023/01/25 10:45:14;;;;;;;28.33;12.50;;;;;;;;;;5068913;28;20047;-68
2023/01/25 10:47:49;;;;;;;23.15;11.98;;;;;;;;;;5069365;28;20025;-69
2023/01/25 10:50:42;;;;;;;23.52;11.88;;;;;;;;;;5068906;28;20512;-65
2023/01/25 10:53:23;;;;;;;24.25;12.15;;;;;;;;;;5073294;28;20480;-68
2023/01/25 10:56:03;;;;;;;21.27;11.02;;;;;;;;;;5073430;28;20409;-68
2023/01/25 10:58:33;;;;;;;20.25;10.68;;;;;;;;;;5073633;28;20029;-68
2023/01/25 11:00:59;;;;;;;24.08;10.82;;;;;;;;;;5072860;28;20429;-64
2023/01/25 11:03:33;;;;;;;23.45;11.85;;;;;;;;;;5073035;28;20123;-64
2023/01/25 11:05:59;;;;;;;22.15;10.85;;;;;;;;;;5072809;28;20139;-66
2023/01/25 11:08:32;;;;;;;22.00;12.10;;;;;;;;;;5073142;28;20560;-66
2023/01/25 11:10:58;;;;;;;21.13;10.57;;;;;;;;;;5072770;28;20029;-63
2023/01/25 11:13:31;;;;;;;24.23;11.70;;;;;;;;;;5076394;28;20096;-65
2023/01/25 11:16:06;;;;;;;22.65;11.15;;;;;;;;;;5082590;28;20032;-65
2023/01/25 11:18:34;;;;;;;27.27;12.30;;;;;;;;;;5080608;28;20030;-69
2023/01/25 11:21:21;;;;;;;23.38;11.38;;;;;;;;;;5080449;28;20383;-75
2023/01/25 11:23:56;;;;;;;20.40;10.52;;;;;;;;;;5080035;28;20028;-70
2023/01/25 11:26:22;;;;;;;17.95;9.80;;;;;;;;;;5083937;28;20114;-66
2023/01/25 11:28:47;;;;;;;16.92;8.95;;;;;;;;;;5082781;28;20295;-68
2023/01/25 11:31:20;;;;;;;19.63;9.15;;;;;;;;;;5081361;28;20110;-74
2023/01/25 11:33:46;;;;;;;15.13;8.82;;;;;;;;;;5072633;28;20037;-69
2023/01/25 11:36:31;;;;;;;16.63;8.40;;;;;;;;;;5072255;28;20020;-78
2023/01/25 11:38:57;;;;;;;15.68;8.80;;;;;;;;;;5073342;28;20040;-80
2023/01/25 11:41:40;;;;;;;17.77;8.57;;;;;;;;;;5072234;28;20032;-77
2023/01/25 11:44:25;;;;;;;15.20;8.30;;;;;;;;;;5070519;28;20029;-82
2023/01/25 11:47:02;;;;;;;16.98;8.98;;;;;;;;;;5070137;28;20064;-81
2023/01/25 11:49:44;;;;;;;14.50;8.05;;;;;;;;;;5070545;28;20081;-79
2023/01/25 11:52:12;;;;;;;14.50;8.07;;;;;;;;;;5053013;28;20031;-79
2023/01/25 11:54:48;;;;;;;15.85;8.57;;;;;;;;;;5070974;28;20048;-75
2023/01/25 11:57:22;;;;;;;16.38;8.73;;;;;;;;;;5070296;28;20016;-76
2023/01/25 11:59:57;;;;;;;16.92;8.55;;;;;;;;;;5072353;28;20021;-82
2023/01/25 12:03:02;;;;;;;16.70;9.00;;;;;;;;;;5071770;28;20123;-77
2023/01/25 12:05:59;;;;;;;15.98;8.40;;;;;;;;;;5020160;28;20404;-81
2023/01/25 12:09:06;;;;;;;17.95;8.80;;;;;;;;;;5072164;28;20596;-78
2023/01/25 12:11:34;;;;;;;19.60;8.95;;;;;;;;;;5071787;28;20614;-78
2023/01/25 12:14:40;;;;;;;17.15;9.18;;;;;;;;;;5071950;28;20016;-78
2023/01/25 12:17:36;;;;;;;19.80;9.20;;;;;;;;;;5021235;28;20047;-77
2023/01/25 12:20:15;;;;;;;18.40;9.85;;;;;;;;;;5071632;28;20024;-75
2023/01/25 12:22:40;;;;;;;20.10;10.50;;;;;;;;;;5071687;28;20025;-83
2023/01/25 12:25:28;;;;;;;20.20;9.95;;;;;;;;;;5071995;28;20046;-76
2023/01/25 12:28:03;;;;;;;18.95;8.82;;;;;;;;;;5071599;28;20028;-79
2023/01/25 12:30:31;;;;;;;19.45;9.57;;;;;;;;;;5071733;28;20100;-81
2023/01/25 12:33:07;;;;;;;17.08;9.45;;;;;;;;;;5071616;28;20024;-81
2023/01/25 12:35:47;;;;;;;19.38;9.77;;;;;;;;;;5071162;28;20503;-75
2023/01/25 12:38:20;;;;;;;25.98;11.07;;;;;;;;;;5071904;28;20389;-80
2023/01/25 12:40:46;;;;;;;19.00;10.38;;;;;;;;;;5071649;28;20099;-76
2023/01/25 12:43:20;;;;;;;19.80;9.80;;;;;;;;;;5071586;28;20624;-75
2023/01/25 12:45:47;;;;;;;20.95;9.88;;;;;;;;;;5071007;28;20067;-77
2023/01/25 12:48:20;;;;;;;18.63;9.35;;;;;;;;;;5071388;28;20023;-75
2023/01/25 12:50:48;;;;;;;19.05;9.85;;;;;;;;;;5071141;28;20089;-74
2023/01/25 12:53:22;;;;;;;21.17;9.65;;;;;;;;;;5071494;28;20054;-73
2023/01/25 12:55:49;;;;;;;17.88;8.98;;;;;;;;;;5071212;28;20035;-76
2023/01/25 12:58:39;;;;;;;19.33;9.50;;;;;;;;;;5036984;28;20028;-76
2023/01/25 13:01:15;;;;;;;22.77;10.38;;;;;;;;;;5070698;28;20104;-78
2023/01/25 13:03:55;;;;;;;24.27;11.45;;;;;;;;;;5085300;28;20267;-75
2023/01/25 13:06:24;;;;;;;19.47;10.30;;;;;;;;;;5058743;28;20032;-78
2023/01/25 13:09:02;;;;;;;20.27;9.98;;;;;;;;;;5094079;28;20250;-76
2023/01/25 13:11:35;;;;;;;19.30;10.05;;;;;;;;;;5089111;28;20210;-72
2023/01/25 13:14:16;;;;;;;20.67;9.75;;;;;;;;;;5077988;28;20021;-71
2023/01/25 13:16:51;;;;;;;;;;;;;;;;;;5069885;28;20028;-80
2023/01/25 13:19:41;;;;;;;18.63;9.25;;;;;;;;;;5069269;28;19990;-75
2023/01/25 13:22:09;;;;;;;20.75;10.05;;;;;;;;;;5063871;28;20081;-75
2023/01/25 13:25:01;;;;;;;19.33;10.10;;;;;;;;;;5068870;28;20027;-73
2023/01/25 13:27:34;;;;;;;18.85;10.07;;;;;;;;;;5069595;28;20021;-68
2023/01/25 13:30:18;;;;;;;21.25;9.98;;;;;;;;;;5070427;28;20108;-68
2023/01/25 13:32:50;;;;;;;18.17;9.82;;;;;;;;;;5053793;28;20028;-67
2023/01/25 13:35:35;;;;;;;22.02;10.32;;;;;;;;;;5070122;28;20031;-66
2023/01/25 13:38:31;;;;;;;21.20;10.45;;;;;;;;;;5069808;28;20021;-67
2023/01/25 13:41:11;;;;;;;20.33;10.18;;;;;;;;;;5047610;28;21033;-71
2023/01/25 13:43:38;;;;;;;22.23;10.25;;;;;;;;;;5054754;28;20036;-67
2023/01/25 13:46:06;;;;;;;20.70;10.95;;;;;;;;;;5077238;28;20029;-67
2023/01/25 13:48:33;;;;;;;23.00;11.45;;;;;;;;;;5069761;28;20086;-67
2023/01/25 13:51:12;;;;;;;24.05;11.52;;;;;;;;;;5072996;28;20045;-67
2023/01/25 13:53:38;;;;;;;25.13;11.45;;;;;;;;;;5071623;28;20025;-67
2023/01/25 13:56:04;;;;;;;26.35;11.98;;;;;;;;;;5079055;28;20567;-66
2023/01/25 13:58:32;;;;;;;21.25;11.05;;;;;;;;;;5082257;28;20024;-70
2023/01/25 14:01:05;;;;;;;21.17;10.50;;;;;;;;;;5089979;28;20111;-68
2023/01/25 14:03:34;;;;;;;19.63;10.10;;;;;;;;;;5070415;28;20078;-68
2023/01/25 14:06:01;;;;;;;21.43;10.23;;;;;;;;;;5069341;28;20468;-73
2023/01/25 14:08:28;;;;;;;20.52;10.55;;;;;;;;;;5067423;28;20045;-80
2023/01/25 14:10:54;;;;;;;21.42;10.55;;;;;;;;;;5067802;28;20032;-69
2023/01/25 14:13:19;;;;;;;21.38;11.07;;;;;;;;;;5069706;28;20025;-74
2023/01/25 14:15:54;;;;;;;24.13;11.00;;;;;;;;;;5068782;28;20035;-79
2023/01/25 14:18:21;;;;;;;21.63;10.57;;;;;;;;;;5052282;28;20025;-74
2023/01/25 14:20:50;;;;;;;21.75;10.82;;;;;;;;;;5071716;28;20057;-68
2023/01/25 14:23:27;;;;;;;23.00;10.48;;;;;;;;;;5070455;28;20032;-66
2023/01/25 14:25:57;;;;;;;19.67;10.60;;;;;;;;;;5054413;28;20028;-73
2023/01/25 14:28:22;;;;;;;22.67;11.27;;;;;;;;;;5071709;28;20538;-76
2023/01/25 14:30:53;;;;;;;22.90;11.23;;;;;;;;;;5070867;28;20143;-71
2023/01/25 14:33:26;;;;;;;;;;;;;;;;;;5067743;28;20033;-72
2023/01/25 14:35:53;;;;;;;26.20;12.18;;;;;;;;;;5067510;28;19908;-71
2023/01/25 14:38:32;;;;;;;26.13;11.85;;;;;;;;;;5067296;28;20038;-72